Time;durP1;ratioP1;P1;durP2;ratioP2;P2;SDS_P1;SDS_P2;PMS_P1;PMS_P2;Temp;Humidity;BMP_temperature;BMP_pressure;BME280_temperature;BME280_humidity;BME280_pressure;Samples;Min_cycle;Max_cycle;Signal;HPM_P1;HPM_P2
2022/09/08 00:02:11;;;;;;;7.82;0.98;;;15.90;99.90;;;;;;5111501;28;20124;-64
2022/09/08 00:04:37;;;;;;;13.05;1.42;;;15.90;99.90;;;;;;5114341;27;20039;-64
2022/09/08 00:07:03;;;;;;;5.35;0.75;;;15.90;99.90;;;;;;5110695;28;20032;-64
2022/09/08 00:09:32;;;;;;;5.25;1.40;;;16.00;99.90;;;;;;5113145;27;20042;-64
2022/09/08 00:11:58;;;;;;;9.45;1.98;;;16.00;99.90;;;;;;5113700;27;20027;-63
2022/09/08 00:14:24;;;;;;;5.35;1.00;;;16.00;99.90;;;;;;5124694;27;20530;-63
2022/09/08 00:16:50;;;;;;;7.25;0.75;;;16.10;99.90;;;;;;5120430;27;20135;-62
2022/09/08 00:19:16;;;;;;;7.70;0.93;;;16.10;99.90;;;;;;5115333;27;20521;-62
2022/09/08 00:21:42;;;;;;;6.47;1.08;;;16.10;99.90;;;;;;5119791;27;20015;-63
2022/09/08 00:24:08;;;;;;;14.32;1.02;;;16.10;99.90;;;;;;5111147;28;20037;-63
2022/09/08 00:26:34;;;;;;;8.55;1.25;;;16.00;99.90;;;;;;5125703;27;20044;-63
2022/09/08 00:28:59;;;;;;;9.48;0.80;;;16.00;99.90;;;;;;5117761;27;20524;-63
2022/09/08 00:31:25;;;;;;;6.97;1.13;;;16.00;99.90;;;;;;5122178;27;20430;-62
2022/09/08 00:33:50;;;;;;;4.25;1.00;;;15.80;99.90;;;;;;5118242;27;20529;-63
2022/09/08 00:36:18;;;;;;;6.65;1.10;;;15.80;99.90;;;;;;5110741;27;20384;-63
2022/09/08 00:38:50;;;;;;;4.85;0.70;;;15.70;99.90;;;;;;5112463;27;20030;-62
2022/09/08 00:41:17;;;;;;;4.90;0.90;;;15.60;99.90;;;;;;5110450;27;20020;-63
2022/09/08 00:43:45;;;;;;;6.60;0.90;;;15.60;99.90;;;;;;5112042;27;20031;-64
2022/09/08 00:46:17;;;;;;;6.30;0.90;;;15.50;99.90;;;;;;5112244;28;20028;-63
2022/09/08 00:48:52;;;;;;;9.23;1.48;;;15.50;99.90;;;;;;5114714;27;20035;-63
2022/09/08 00:51:19;;;;;;;5.70;0.90;;;15.40;99.90;;;;;;5105572;27;20055;-63
2022/09/08 00:53:47;;;;;;;7.18;1.08;;;15.40;99.90;;;;;;5113969;27;20031;-63
2022/09/08 00:56:13;;;;;;;7.05;1.10;;;15.30;99.90;;;;;;5106161;27;20033;-63
2022/09/08 00:58:39;;;;;;;8.38;0.57;;;15.20;99.90;;;;;;5123295;27;20164;-63
2022/09/08 01:01:06;;;;;;;10.68;1.35;;;15.10;99.90;;;;;;5117582;27;20140;-63
2022/09/08 01:03:33;;;;;;;6.68;1.25;;;15.00;99.90;;;;;;5127378;27;20047;-63
2022/09/08 01:06:05;;;;;;;11.68;0.77;;;15.00;99.90;;;;;;5118225;27;20025;-63
2022/09/08 01:14:19;;;;;;;4.05;0.73;;;15.00;99.90;;;;;;5123989;27;20055;-63
2022/09/08 01:16:48;;;;;;;9.38;0.63;;;15.00;99.90;;;;;;5117696;27;20107;-63
2022/09/08 01:19:28;;;;;;;7.50;0.65;;;15.00;99.90;;;;;;5122074;27;20478;-63
2022/09/08 01:22:09;;;;;;;4.05;1.00;;;15.00;99.90;;;;;;5100758;27;20019;-62
2022/09/08 01:25:02;;;;;;;5.75;0.50;;;15.00;99.90;;;;;;5115219;27;20074;-63
2022/09/08 01:27:30;;;;;;;5.70;0.77;;;15.00;99.90;;;;;;5114096;27;20023;-63
2022/09/08 01:30:06;;;;;;;6.20;1.23;;;15.00;99.90;;;;;;5118275;27;20069;-63
2022/09/08 01:32:38;;;;;;;6.55;1.10;;;15.10;99.90;;;;;;5108603;27;20115;-61
2022/09/08 01:35:04;;;;;;;10.88;1.63;;;15.10;99.90;;;;;;5107060;27;20035;-63
2022/09/08 01:37:30;;;;;;;14.45;1.65;;;15.20;99.90;;;;;;5109526;28;20028;-63
2022/09/08 01:39:57;;;;;;;6.60;0.90;;;15.30;99.90;;;;;;5120687;27;20164;-63
2022/09/08 01:42:23;;;;;;;8.55;1.30;;;15.30;99.90;;;;;;5113711;27;20023;-63
2022/09/08 01:44:49;;;;;;;16.83;1.73;;;15.30;99.90;;;;;;5115326;27;20051;-63
2022/09/08 01:51:14;;;;;;;14.88;2.22;;;15.50;99.90;;;;;;5120115;27;20038;-64
2022/09/08 01:53:39;;;;;;;6.25;1.75;;;15.60;99.90;;;;;;5107369;28;20042;-65
2022/09/08 01:56:06;;;;;;;12.60;1.67;;;15.60;99.90;;;;;;5109306;28;20482;-64
2022/09/08 01:58:32;;;;;;;10.70;2.17;;;15.60;99.90;;;;;;5122565;27;20099;-66
2022/09/08 02:00:58;;;;;;;9.38;1.20;;;15.60;99.90;;;;;;5115605;27;20118;-64
2022/09/08 02:03:24;;;;;;;6.25;0.88;;;15.60;99.90;;;;;;5111171;28;20131;-63
2022/09/08 02:05:50;;;;;;;5.32;0.80;;;15.50;99.90;;;;;;5120649;28;20072;-63
2022/09/08 02:08:15;;;;;;;5.35;1.05;;;15.40;99.90;;;;;;5115718;28;20032;-63
2022/09/08 02:10:41;;;;;;;6.07;0.88;;;15.40;99.90;;;;;;5103181;28;20072;-64
2022/09/08 02:13:08;;;;;;;5.30;1.52;;;15.30;99.90;;;;;;5117264;28;20065;-63
2022/09/08 02:15:33;;;;;;;10.82;0.80;;;15.30;99.90;;;;;;5119125;28;20036;-64
2022/09/08 02:17:59;;;;;;;5.53;0.88;;;15.40;99.90;;;;;;5118978;28;20043;-63
2022/09/08 02:20:26;;;;;;;6.20;0.80;;;15.40;99.90;;;;;;5115383;28;20076;-63
2022/09/08 02:22:52;;;;;;;9.80;1.00;;;15.50;99.90;;;;;;5111246;28;20032;-63
2022/09/08 02:25:18;;;;;;;6.53;0.98;;;15.50;99.90;;;;;;5115237;28;20097;-63
2022/09/08 02:27:43;;;;;;;6.10;1.13;;;15.50;99.90;;;;;;5110481;28;20024;-63
2022/09/08 02:30:11;;;;;;;7.10;0.80;;;15.50;99.90;;;;;;5113887;28;20467;-63
2022/09/08 02:32:37;;;;;;;4.45;1.40;;;15.50;99.90;;;;;;5119045;28;20467;-63
2022/09/08 02:35:03;;;;;;;10.32;1.50;;;15.40;99.90;;;;;;5116020;28;20031;-63
2022/09/08 02:37:28;;;;;;;5.72;1.15;;;15.50;99.90;;;;;;5114992;28;20024;-63
2022/09/08 02:39:54;;;;;;;8.35;1.60;;;15.40;99.90;;;;;;5116519;28;20027;-63
2022/09/08 02:42:20;;;;;;;9.43;1.30;;;15.40;99.90;;;;;;5112082;28;20372;-63
2022/09/08 02:44:46;;;;;;;10.20;1.80;;;15.30;99.90;;;;;;5115541;28;20428;-63
2022/09/08 02:47:11;;;;;;;11.20;1.70;;;15.30;99.90;;;;;;5117344;28;20427;-63
2022/09/08 02:49:37;;;;;;;9.32;1.38;;;15.40;99.90;;;;;;5125445;28;20019;-64
2022/09/08 02:52:02;;;;;;;8.00;1.50;;;15.40;99.90;;;;;;5113826;28;20554;-63
2022/09/08 02:54:28;;;;;;;10.30;2.47;;;15.50;99.90;;;;;;5109056;28;20363;-64
2022/09/08 02:56:54;;;;;;;8.35;1.20;;;15.50;99.90;;;;;;5120370;28;20080;-64
2022/09/08 02:59:20;;;;;;;10.27;1.10;;;15.50;99.90;;;;;;5119703;27;20036;-64
2022/09/08 03:01:46;;;;;;;10.80;1.98;;;15.40;99.90;;;;;;5118011;28;20065;-64
2022/09/08 03:04:13;;;;;;;8.07;1.38;;;15.40;99.90;;;;;;5107632;28;20074;-64
2022/09/08 03:06:39;;;;;;;10.55;1.85;;;15.40;99.90;;;;;;5112902;28;20035;-64
2022/09/08 03:09:06;;;;;;;9.73;1.73;;;15.40;99.90;;;;;;5119185;28;20035;-64
2022/09/08 03:11:32;;;;;;;17.02;1.63;;;15.40;99.90;;;;;;5120406;27;20849;-63
2022/09/08 03:13:59;;;;;;;8.32;1.08;;;15.40;99.90;;;;;;5121663;27;20027;-63
2022/09/08 03:16:25;;;;;;;5.97;0.88;;;15.30;99.90;;;;;;5122356;27;20422;-63
2022/09/08 03:18:51;;;;;;;10.80;1.20;;;15.20;99.90;;;;;;5130680;27;20038;-63
2022/09/08 03:21:17;;;;;;;6.88;0.82;;;15.10;99.90;;;;;;5123790;27;20039;-63
2022/09/08 03:23:43;;;;;;;7.63;1.02;;;15.00;99.90;;;;;;5111996;28;20046;-63
2022/09/08 03:26:16;;;;;;;5.30;0.98;;;15.00;99.90;;;;;;5115229;27;20106;-62
2022/09/08 03:28:42;;;;;;;7.72;0.95;;;15.00;99.90;;;;;;5101375;27;20394;-62
2022/09/08 03:31:11;;;;;;;6.60;1.17;;;15.00;99.90;;;;;;5114555;27;20379;-62
2022/09/08 03:33:37;;;;;;;10.27;0.90;;;14.90;99.90;;;;;;5113317;27;20023;-62
2022/09/08 03:36:05;;;;;;;14.27;1.77;;;14.80;99.90;;;;;;5116286;27;20035;-62
2022/09/08 03:38:32;;;;;;;5.47;1.20;;;14.80;99.90;;;;;;5123759;27;20096;-62
2022/09/08 03:40:58;;;;;;;11.77;1.35;;;14.80;99.90;;;;;;5118976;27;20114;-62
2022/09/08 03:43:24;;;;;;;10.45;1.50;;;14.80;99.90;;;;;;5117880;27;20106;-62
2022/09/08 03:45:50;;;;;;;11.48;1.55;;;14.80;99.90;;;;;;5111115;27;20031;-62
2022/09/08 03:48:15;;;;;;;18.92;2.53;;;14.70;99.90;;;;;;5125489;27;20031;-62
2022/09/08 03:50:42;;;;;;;17.33;1.92;;;14.70;99.90;;;;;;5117626;27;20023;-62
2022/09/08 03:53:08;;;;;;;21.88;1.80;;;14.80;99.90;;;;;;5111962;27;20034;-62
2022/09/08 03:55:34;;;;;;;19.83;2.70;;;14.80;99.90;;;;;;5116925;27;20389;-62
2022/09/08 03:58:00;;;;;;;25.77;3.30;;;14.80;99.90;;;;;;5113452;27;20020;-62
2022/09/08 04:00:26;;;;;;;18.55;3.80;;;14.80;99.90;;;;;;5115937;27;20432;-63
2022/09/08 04:02:53;;;;;;;19.63;2.85;;;14.80;99.90;;;;;;5111885;27;20059;-62
2022/09/08 04:05:18;;;;;;;23.00;2.47;;;14.80;99.90;;;;;;5110945;28;20102;-62
2022/09/08 04:07:44;;;;;;;16.45;2.10;;;14.80;99.90;;;;;;5122593;27;20562;-61
2022/09/08 04:10:12;;;;;;;16.33;1.90;;;14.80;99.90;;;;;;5125407;27;20024;-62
2022/09/08 04:12:38;;;;;;;24.88;3.08;;;14.80;99.90;;;;;;5120219;27;20053;-63
2022/09/08 04:15:05;;;;;;;17.77;2.25;;;14.80;99.90;;;;;;5111346;27;20979;-62
2022/09/08 04:17:31;;;;;;;21.10;2.25;;;14.80;99.90;;;;;;5123961;27;20027;-62
2022/09/08 04:19:56;;;;;;;14.85;2.10;;;14.90;99.90;;;;;;5117660;27;20390;-62
2022/09/08 04:22:23;;;;;;;15.73;1.60;;;15.00;99.90;;;;;;5111904;27;20024;-62
2022/09/08 04:24:49;;;;;;;17.77;2.28;;;15.00;99.90;;;;;;5110760;27;20562;-62
2022/09/08 04:27:16;;;;;;;19.33;1.90;;;15.00;99.90;;;;;;5099516;28;20051;-62
2022/09/08 04:29:42;;;;;;;18.38;3.13;;;15.00;99.90;;;;;;5117064;27;20035;-62
2022/09/08 04:32:07;;;;;;;21.88;2.33;;;15.10;99.90;;;;;;5116660;27;20027;-62
2022/09/08 04:34:34;;;;;;;20.40;2.85;;;15.10;99.90;;;;;;5118691;27;20032;-62
2022/09/08 04:37:00;;;;;;;17.92;2.13;;;15.10;99.90;;;;;;5108850;28;20077;-63
2022/09/08 04:39:27;;;;;;;13.32;1.75;;;15.20;99.90;;;;;;5111987;27;20535;-62
2022/09/08 04:41:52;;;;;;;11.55;1.75;;;15.20;99.90;;;;;;5111471;27;20028;-62
2022/09/08 04:44:18;;;;;;;15.30;3.88;;;15.30;99.90;;;;;;5113313;27;20483;-62
2022/09/08 04:46:44;;;;;;;13.93;2.97;;;15.40;99.90;;;;;;5116803;27;20023;-62
2022/09/08 04:49:09;;;;;;;13.23;1.75;;;15.40;99.90;;;;;;5105315;27;20019;-62
2022/09/08 04:51:35;;;;;;;17.02;2.50;;;15.50;99.90;;;;;;5110376;27;20491;-62
2022/09/08 04:54:02;;;;;;;10.50;1.88;;;15.50;99.90;;;;;;5095211;28;20024;-62
2022/09/08 04:56:28;;;;;;;18.48;3.00;;;15.50;99.90;;;;;;5113283;27;20101;-62
2022/09/08 04:58:55;;;;;;;29.08;3.88;;;15.50;99.90;;;;;;5107227;27;20023;-62
2022/09/08 05:04:42;;;;;;;9.55;2.28;;;15.60;99.90;;;;;;5107363;28;20517;-68
2022/09/08 05:07:08;;;;;;;16.30;3.22;;;15.60;99.90;;;;;;5088224;28;20028;-66
2022/09/08 05:09:33;;;;;;;9.98;1.58;;;15.50;99.90;;;;;;5107264;27;20034;-64
2022/09/08 05:11:59;;;;;;;13.52;1.60;;;15.50;99.90;;;;;;5103459;27;20482;-65
2022/09/08 05:14:24;;;;;;;9.35;1.92;;;15.40;99.90;;;;;;5108007;27;20027;-64
2022/09/08 05:16:50;;;;;;;9.55;1.40;;;15.40;99.90;;;;;;5105513;27;20069;-63
2022/09/08 05:19:16;;;;;;;11.95;1.42;;;15.40;99.90;;;;;;5109800;27;20027;-62
2022/09/08 05:21:42;;;;;;;14.52;1.70;;;15.30;99.90;;;;;;5097952;28;20023;-63
2022/09/08 05:24:09;;;;;;;4.78;0.93;;;15.30;99.90;;;;;;5095603;27;20034;-64
2022/09/08 05:26:35;;;;;;;9.13;1.48;;;15.30;99.90;;;;;;5102675;28;20027;-65
2022/09/08 05:29:03;;;;;;;9.05;1.13;;;15.20;99.90;;;;;;5111752;27;20036;-70
2022/09/08 05:31:29;;;;;;;7.35;1.45;;;15.20;99.90;;;;;;5117331;27;20031;-69
2022/09/08 05:33:57;;;;;;;7.15;1.52;;;15.20;99.90;;;;;;5118607;27;20118;-66
2022/09/08 05:36:28;;;;;;;12.82;1.13;;;15.10;99.90;;;;;;5116805;27;20300;-64
2022/09/08 05:38:54;;;;;;;14.17;1.17;;;15.10;99.90;;;;;;5103516;27;20487;-64
2022/09/08 05:41:21;;;;;;;12.32;1.45;;;15.10;99.90;;;;;;5113107;27;20023;-63
2022/09/08 05:43:50;;;;;;;9.48;1.48;;;15.20;99.90;;;;;;5115562;27;20076;-63
2022/09/08 05:46:16;;;;;;;12.13;2.40;;;15.30;99.90;;;;;;5113446;27;20023;-63
2022/09/08 05:48:42;;;;;;;14.10;1.98;;;15.30;99.90;;;;;;5124759;27;20390;-65
2022/09/08 05:51:10;;;;;;;9.85;1.70;;;15.30;99.90;;;;;;5105561;27;20032;-65
2022/09/08 05:53:37;;;;;;;7.85;1.95;;;15.40;99.90;;;;;;5111361;27;20034;-65
2022/09/08 05:56:06;;;;;;;11.95;2.13;;;15.50;99.90;;;;;;5094426;28;20016;-65
2022/09/08 05:58:32;;;;;;;14.50;1.95;;;15.40;99.90;;;;;;5108230;27;20124;-65
2022/09/08 06:01:00;;;;;;;8.13;1.75;;;15.40;99.90;;;;;;5104600;28;20471;-65
2022/09/08 06:06:51;;;;;;;15.07;2.22;;;15.40;99.90;;;;;;5042507;28;20032;-74
2022/09/08 06:09:16;;;;;;;14.65;2.55;;;15.20;99.90;;;;;;5037606;28;20399;-76
2022/09/08 06:11:42;;;;;;;11.02;1.90;;;15.10;99.90;;;;;;5038678;28;20124;-69
2022/09/08 06:14:10;;;;;;;14.80;2.13;;;15.10;99.90;;;;;;5034273;28;20030;-68
2022/09/08 06:16:36;;;;;;;10.60;2.10;;;14.90;99.90;;;;;;5036906;28;20427;-70
2022/09/08 06:19:02;;;;;;;6.82;1.27;;;14.80;99.90;;;;;;5033502;28;20453;-69
2022/09/08 06:21:30;;;;;;;10.68;1.33;;;14.70;99.90;;;;;;5035941;28;20202;-66
2022/09/08 06:24:01;;;;;;;5.22;1.23;;;14.80;99.90;;;;;;5039521;28;20080;-70
2022/09/08 06:26:46;;;;;;;6.93;1.92;;;14.80;99.90;;;;;;5037746;28;20101;-69
2022/09/08 06:29:17;;;;;;;10.77;2.00;;;14.60;99.90;;;;;;5035171;28;20021;-74
2022/09/08 06:31:49;;;;;;;7.57;1.55;;;14.70;99.90;;;;;;5044145;28;20456;-71
2022/09/08 06:34:17;;;;;;;;;;;14.60;99.90;;;;;;5039010;28;20034;-68
2022/09/08 06:36:54;;;;;;;13.35;2.90;;;14.60;99.90;;;;;;5033102;28;19909;-67
2022/09/08 06:39:31;;;;;;;16.45;2.22;;;14.70;99.90;;;;;;5037627;28;20067;-66
2022/09/08 06:42:19;;;;;;;23.70;3.65;;;14.70;99.90;;;;;;5034818;28;20053;-67
2022/09/08 06:44:50;;;;;;;15.45;1.67;;;14.70;99.90;;;;;;5095193;27;20135;-65
2022/09/08 06:47:21;;;;;;;12.45;2.42;;;14.70;99.90;;;;;;5114435;27;20471;-66
2022/09/08 06:49:50;;;;;;;12.90;2.15;;;14.80;99.90;;;;;;5108911;28;20045;-65
2022/09/08 06:52:20;;;;;;;10.88;2.22;;;14.70;99.90;;;;;;5116053;27;20020;-66
2022/09/08 06:55:02;;;;;;;11.88;2.47;;;14.80;99.90;;;;;;5111581;27;20502;-65
2022/09/08 06:57:55;;;;;;;16.48;2.28;;;14.80;99.90;;;;;;5116120;27;20063;-65
2022/09/08 07:00:28;;;;;;;17.65;2.95;;;14.80;99.90;;;;;;5112202;27;20108;-66
2022/09/08 07:03:18;;;;;;;16.70;3.28;;;14.80;99.90;;;;;;5112614;27;20454;-66
2022/09/08 07:05:45;;;;;;;23.98;2.58;;;14.90;99.90;;;;;;5117599;27;20505;-66
2022/09/08 07:08:48;;;;;;;19.23;2.83;;;14.90;99.90;;;;;;5106196;27;20022;-66
2022/09/08 07:11:43;;;;;;;14.73;2.40;;;14.90;99.90;;;;;;5109340;27;20019;-66
2022/09/08 07:14:42;;;;;;;17.05;2.80;;;15.00;99.90;;;;;;5113081;27;20413;-67
2022/09/08 07:17:24;;;;;;;21.38;3.05;;;15.10;99.90;;;;;;5092030;28;20106;-68
2022/09/08 07:19:54;;;;;;;23.98;3.35;;;15.10;99.90;;;;;;5118571;27;20024;-67
2022/09/08 07:22:42;;;;;;;19.38;3.13;;;15.10;99.90;;;;;;5111089;28;20032;-67
2022/09/08 07:25:17;;;;;;;18.30;3.28;;;15.10;99.90;;;;;;5111428;27;20548;-66
2022/09/08 07:27:47;;;;;;;18.52;3.40;;;15.30;99.90;;;;;;5110962;27;20314;-65
2022/09/08 07:30:18;;;;;;;19.15;3.60;;;15.20;99.90;;;;;;5112892;27;20362;-66
2022/09/08 07:32:49;;;;;;;21.45;2.97;;;15.30;99.90;;;;;;5116574;27;20347;-66
2022/09/08 07:35:31;;;;;;;15.65;3.20;;;15.30;99.90;;;;;;5111631;27;20518;-65
2022/09/08 07:38:04;;;;;;;20.83;3.42;;;15.50;99.90;;;;;;5106964;28;20479;-64
2022/09/08 07:40:37;;;;;;;16.60;2.50;;;15.60;99.90;;;;;;5114565;27;20472;-65
2022/09/08 07:43:10;;;;;;;16.40;2.92;;;15.60;99.90;;;;;;5095051;27;20043;-64
2022/09/08 07:45:48;;;;;;;20.65;3.45;;;15.70;99.90;;;;;;5118931;27;20077;-64
2022/09/08 07:48:28;;;;;;;23.13;3.78;;;15.60;99.90;;;;;;5110381;27;20016;-64
2022/09/08 07:54:34;;;;;;;24.42;4.70;;;15.80;99.90;;;;;;5002709;28;20539;-74
2022/09/08 07:57:14;;;;;;;17.70;4.40;;;15.80;99.90;;;;;;5002173;28;20482;-72
2022/09/08 08:00:36;;;;;;;14.35;3.80;;;15.80;99.90;;;;;;5011300;28;20071;-72
2022/09/08 08:03:47;;;;;;;17.20;3.43;;;15.70;99.90;;;;;;4992601;28;20053;-66
2022/09/08 08:06:40;;;;;;;20.23;4.78;;;15.70;99.90;;;;;;4961340;28;20414;-66
2022/09/08 08:09:28;;;;;;;28.00;4.40;;;15.90;99.90;;;;;;4958400;28;20049;-65
2022/09/08 08:12:18;;;;;;;25.33;3.63;;;15.90;99.90;;;;;;4957785;28;20101;-64
2022/09/08 08:14:49;;;;;;;17.45;3.35;;;15.90;99.90;;;;;;4960204;28;20113;-65
2022/09/08 08:17:27;;;;;;;19.25;3.33;;;16.10;99.90;;;;;;4960953;28;20795;-63
2022/09/08 08:20:45;;;;;;;19.95;4.30;;;16.10;99.90;;;;;;4955523;28;20034;-64
2022/09/08 08:23:38;;;;;;;18.30;4.13;;;16.20;99.90;;;;;;4961826;28;20035;-63
2022/09/08 08:26:15;;;;;;;27.17;5.38;;;16.30;99.90;;;;;;4978057;28;20527;-64
2022/09/08 08:28:43;;;;;;;23.83;5.53;;;16.60;99.90;;;;;;4984563;28;20042;-64
2022/09/08 08:31:23;;;;;;;25.52;3.95;;;16.80;99.90;;;;;;4984118;28;20062;-64
2022/09/08 08:33:58;;;;;;;23.25;4.10;;;16.90;99.90;;;;;;4983145;28;20565;-65
2022/09/08 08:36:26;;;;;;;28.27;4.25;;;17.00;99.90;;;;;;4994411;28;20041;-63
2022/09/08 08:39:17;;;;;;;19.60;4.35;;;17.10;99.90;;;;;;5046969;28;20059;-65
2022/09/08 08:41:45;;;;;;;24.33;4.50;;;17.10;99.90;;;;;;5058102;28;20089;-64
2022/09/08 08:44:38;;;;;;;19.13;4.13;;;17.20;99.90;;;;;;5088288;28;20051;-64
2022/09/08 08:47:26;;;;;;;15.90;3.83;;;17.30;99.90;;;;;;5091645;28;20032;-64
2022/09/08 08:50:00;;;;;;;20.42;3.58;;;17.30;99.90;;;;;;5088116;28;20050;-63
2022/09/08 08:52:35;;;;;;;26.23;3.85;;;17.30;99.90;;;;;;5094669;28;20505;-63
2022/09/08 08:55:12;;;;;;;20.98;3.00;;;17.30;99.90;;;;;;5088883;28;20024;-63
2022/09/08 08:58:42;;;;;;;17.60;2.72;;;17.30;99.90;;;;;;5095276;28;20093;-63
2022/09/08 09:01:20;;;;;;;20.30;2.83;;;17.30;99.90;;;;;;5041001;28;20041;-63
2022/09/08 09:04:13;;;;;;;19.95;3.63;;;17.50;99.90;;;;;;5040685;28;20052;-62
2022/09/08 09:07:03;;;;;;;26.40;4.15;;;17.50;99.90;;;;;;5036418;28;20033;-61
2022/09/08 09:10:06;;;;;;;27.15;4.15;;;17.50;99.90;;;;;;5040363;28;20456;-71
2022/09/08 09:13:05;;;;;;;13.70;2.30;;;17.30;99.90;;;;;;5042202;28;20183;-73
2022/09/08 09:15:52;;;;;;;18.17;3.05;;;16.70;99.90;;;;;;5044815;28;20033;-65
2022/09/08 09:18:36;;;;;;;15.13;3.00;;;16.60;99.90;;;;;;5042439;28;20071;-63
2022/09/08 09:21:04;;;;;;;14.35;2.30;;;16.60;99.90;;;;;;5039713;28;20094;-64
2022/09/08 09:23:57;;;;;;;19.67;2.95;;;16.60;99.90;;;;;;5042014;28;20059;-64
2022/09/08 09:26:25;;;;;;;19.85;4.07;;;16.80;99.90;;;;;;5043691;28;20094;-63
2022/09/08 09:32:42;;;;;;;17.55;3.60;;;16.80;99.90;;;;;;5039703;28;20078;-67
2022/09/08 09:35:26;;;;;;;22.92;5.25;;;16.40;99.90;;;;;;5040548;28;20041;-63
2022/09/08 09:38:16;;;;;;;23.55;3.22;;;16.40;99.90;;;;;;5101139;27;20043;-62
2022/09/08 09:41:06;;;;;;;32.80;4.32;;;16.40;99.90;;;;;;5107044;27;20032;-62
2022/09/08 09:44:05;;;;;;;28.90;5.30;;;16.70;99.90;;;;;;5100625;27;20048;-61
2022/09/08 09:46:52;;;;;;;28.23;4.57;;;17.10;99.90;;;;;;5100512;27;20493;-62
2022/09/08 09:49:42;;;;;;;28.02;5.63;;;17.60;99.90;;;;;;5102614;27;20580;-62
2022/09/08 09:52:10;;;;;;;21.73;4.47;;;17.80;99.90;;;;;;5099032;27;20023;-62
2022/09/08 09:55:12;;;;;;;20.00;2.83;;;18.00;99.90;;;;;;5100976;28;20032;-61
2022/09/08 09:58:09;;;;;;;23.05;3.75;;;18.10;99.90;;;;;;5019569;28;20045;-60
2022/09/08 10:01:09;;;;;;;14.02;2.75;;;18.20;99.90;;;;;;5019228;28;20057;-60
2022/09/08 10:03:45;;;;;;;16.92;2.92;;;18.40;99.90;;;;;;5011490;28;20232;-60
2022/09/08 10:06:23;;;;;;;20.77;3.40;;;18.60;99.90;;;;;;5019405;28;20382;-61
2022/09/08 10:09:29;;;;;;;23.40;2.60;;;19.00;99.90;;;;;;5022482;28;20037;-60
2022/09/08 10:12:11;;;;;;;15.90;2.63;;;19.10;99.90;;;;;;5020069;28;20037;-61
2022/09/08 10:14:56;;;;;;;17.20;2.70;;;18.70;99.90;;;;;;5022256;28;20049;-62
2022/09/08 10:17:45;;;;;;;20.00;3.70;;;18.50;99.90;;;;;;5021995;28;20059;-61
2022/09/08 10:20:49;;;;;;;18.35;2.80;;;18.20;99.90;;;;;;5020608;28;20056;-60
2022/09/08 10:23:27;;;;;;;19.75;3.65;;;17.80;99.90;;;;;;5026253;28;20140;-61
2022/09/08 10:26:29;;;;;;;15.52;2.85;;;17.50;99.90;;;;;;5024371;28;20513;-61
2022/09/08 10:29:36;;;;;;;20.40;2.17;;;17.40;99.90;;;;;;5020676;28;20025;-60
2022/09/08 10:32:51;;;;;;;15.18;2.85;;;17.30;99.90;;;;;;5020568;28;20095;-60
2022/09/08 10:35:37;;;;;;;22.27;3.30;;;17.20;99.90;;;;;;5029879;28;20279;-60
2022/09/08 10:38:12;;;;;;;17.55;2.28;;;17.30;99.90;;;;;;5035061;28;20025;-60
2022/09/08 10:41:01;;;;;;;20.33;3.67;;;17.30;99.90;;;;;;5040435;28;20105;-60
2022/09/08 10:43:38;;;;;;;21.40;4.30;;;17.50;99.90;;;;;;5033223;28;20049;-60
2022/09/08 10:46:41;;;;;;;15.77;2.83;;;17.60;99.90;;;;;;5027416;28;20049;-61
2022/09/08 10:49:44;;;;;;;14.60;2.28;;;17.70;99.90;;;;;;5035024;28;20095;-61
2022/09/08 10:52:29;;;;;;;;;;;17.70;99.90;;;;;;5030649;28;20063;-61
2022/09/08 10:55:15;;;;;;;17.40;2.65;;;17.60;99.90;;;;;;5036504;28;19913;-62
2022/09/08 10:58:12;;;;;;;18.60;2.55;;;17.60;99.90;;;;;;5027689;28;20513;-61
2022/09/08 11:00:45;;;;;;;16.98;2.42;;;17.70;99.90;;;;;;5038357;28;20207;-61
2022/09/08 11:03:31;;;;;;;15.23;2.67;;;17.80;99.90;;;;;;5033479;28;20599;-61
2022/09/08 11:06:07;;;;;;;12.43;2.63;;;17.80;99.90;;;;;;5033117;28;20097;-61
2022/09/08 11:08:37;;;;;;;17.27;2.95;;;17.70;99.90;;;;;;5070656;27;20047;-70
2022/09/08 11:11:05;;;;;;;17.65;3.85;;;17.50;99.90;;;;;;5107323;27;20027;-63
2022/09/08 11:14:08;;;;;;;12.95;1.83;;;17.40;99.90;;;;;;5107463;27;20556;-62
2022/09/08 11:16:53;;;;;;;18.98;3.03;;;17.50;99.90;;;;;;5113246;27;20038;-61
2022/09/08 11:19:40;;;;;;;17.13;3.42;;;17.60;99.90;;;;;;5110848;27;20027;-61
2022/09/08 11:22:12;;;;;;;13.38;1.88;;;17.80;99.90;;;;;;5111304;27;20036;-62
2022/09/08 11:24:49;;;;;;;13.15;2.33;;;18.00;99.90;;;;;;5114830;27;20574;-62
2022/09/08 11:27:18;;;;;;;15.90;2.63;;;18.30;99.90;;;;;;5115473;27;21269;-61
2022/09/08 11:29:54;;;;;;;8.90;2.28;;;18.40;99.90;;;;;;5113440;27;20027;-61
2022/09/08 11:33:13;;;;;;;12.30;2.20;;;18.70;99.90;;;;;;5103431;28;20043;-61
2022/09/08 11:35:52;;;;;;;16.58;2.20;;;18.60;99.90;;;;;;5097042;28;20027;-69
2022/09/08 11:38:29;;;;;;;15.18;2.55;;;18.10;99.90;;;;;;5106865;28;20051;-63
2022/09/08 11:41:23;;;;;;;18.48;3.30;;;17.70;99.90;;;;;;5108951;27;20058;-63
2022/09/08 11:44:16;;;;;;;16.23;2.10;;;17.60;99.90;;;;;;5106361;27;20399;-62
2022/09/08 11:47:08;;;;;;;15.43;2.40;;;17.40;99.90;;;;;;5110688;27;20020;-70
2022/09/08 11:50:17;;;;;;;9.60;1.80;;;17.10;99.90;;;;;;5106084;27;20051;-71
2022/09/08 11:52:46;;;;;;;4.70;1.10;;;16.40;99.90;;;;;;5097465;28;20050;-75
2022/09/08 11:55:38;;;;;;;4.90;0.70;;;16.90;99.90;;;;;;5110144;27;20087;-70
2022/09/08 11:58:12;;;;;;;5.85;1.80;;;16.50;99.90;;;;;;5109930;27;20069;-74
2022/09/08 12:00:53;;;;;;;14.00;2.60;;;16.30;99.90;;;;;;5108766;27;20020;-68
2022/09/08 12:03:21;;;;;;;15.48;3.55;;;16.30;99.90;;;;;;5104880;28;20068;-68
2022/09/08 12:05:53;;;;;;;17.85;2.60;;;16.40;99.90;;;;;;5106333;27;20524;-66
2022/09/08 12:08:24;;;;;;;17.45;3.38;;;16.50;99.90;;;;;;5110402;27;20050;-68
2022/09/08 12:10:59;;;;;;;22.88;4.05;;;16.70;99.90;;;;;;5109056;27;20031;-64
2022/09/08 12:13:24;;;;;;;29.38;4.13;;;16.90;99.90;;;;;;5114206;27;20042;-63
2022/09/08 12:15:50;;;;;;;14.48;2.42;;;17.10;99.90;;;;;;5110762;27;20035;-61
2022/09/08 12:18:35;;;;;;;18.50;2.78;;;17.80;99.90;;;;;;5111709;27;20032;-64
2022/09/08 12:21:03;;;;;;;13.43;2.33;;;18.90;99.90;;;;;;5115399;27;20110;-60
2022/09/08 12:23:42;;;;;;;16.83;3.28;;;19.50;99.90;;;;;;5110274;27;20113;-60
2022/09/08 12:26:26;;;;;;;25.35;3.03;;;20.00;99.90;;;;;;5104591;27;20489;-60
2022/09/08 12:29:04;;;;;;;18.98;3.47;;;19.70;99.90;;;;;;5111084;27;20032;-60
2022/09/08 12:31:32;;;;;;;18.65;2.80;;;19.30;99.90;;;;;;5103721;27;20089;-61
2022/09/08 12:34:16;;;;;;;18.38;2.40;;;18.80;99.90;;;;;;5108092;27;20028;-59
2022/09/08 12:37:24;;;;;;;17.30;2.97;;;18.50;99.90;;;;;;5108047;27;20047;-59
2022/09/08 12:40:11;;;;;;;21.60;2.97;;;18.40;99.90;;;;;;5107584;27;20016;-60
2022/09/08 12:43:00;;;;;;;21.67;2.53;;;18.30;99.90;;;;;;5108595;27;20085;-61
2022/09/08 12:45:45;;;;;;;19.05;2.97;;;18.50;99.90;;;;;;5108270;27;20038;-61
2022/09/08 12:48:32;;;;;;;20.45;3.05;;;18.40;99.90;;;;;;5111591;27;20501;-61
2022/09/08 12:51:16;;;;;;;23.90;3.35;;;18.60;99.90;;;;;;5101933;28;20434;-60
2022/09/08 12:54:13;;;;;;;24.05;3.17;;;18.80;99.90;;;;;;5106292;28;20062;-60
2022/09/08 12:57:15;;;;;;;30.92;3.75;;;18.70;99.90;;;;;;5101106;27;20028;-62
2022/09/08 12:59:48;;;;;;;17.30;3.60;;;18.50;99.90;;;;;;5109589;27;20026;-64
2022/09/08 13:02:35;;;;;;;23.13;3.72;;;18.40;99.90;;;;;;5110744;27;20031;-61
2022/09/08 13:05:35;;;;;;;20.20;2.78;;;18.50;99.90;;;;;;5112528;27;20043;-66
2022/09/08 13:08:40;;;;;;;16.30;3.78;;;18.70;99.90;;;;;;5113640;27;20471;-66
2022/09/08 13:11:17;;;;;;;17.73;2.47;;;18.70;99.90;;;;;;5083830;27;20633;-62
2022/09/08 13:47:43;;;;;;;7.75;0.98;;;19.00;99.90;;;;;;2857514;28;20035;-62
2022/09/08 13:50:49;;;;;;;11.15;1.80;;;19.10;99.90;;;;;;4963619;28;20070;-61
2022/09/08 13:53:47;;;;;;;11.02;1.85;;;18.90;99.90;;;;;;4965572;28;20037;-60
2022/09/08 13:56:20;;;;;;;12.40;1.73;;;18.70;99.90;;;;;;4963081;28;20480;-60
2022/09/08 13:58:48;;;;;;;12.95;1.52;;;19.30;99.90;;;;;;4967619;28;20050;-60
2022/09/08 14:01:28;;;;;;;15.10;1.92;;;20.60;99.90;;;;;;4970131;28;20050;-59
2022/09/08 14:04:18;;;;;;;14.43;2.65;;;20.70;99.90;;;;;;4967322;28;20046;-59
2022/09/08 14:06:54;;;;;;;13.05;2.42;;;21.60;99.90;;;;;;4968781;28;20055;-59
2022/09/08 14:09:26;;;;;;;13.05;2.05;;;22.20;99.90;;;;;;4969422;28;20121;-59
2022/09/08 14:12:20;;;;;;;15.93;2.33;;;22.50;99.90;;;;;;4966414;28;20054;-59
2022/09/08 14:15:11;;;;;;;16.33;2.65;;;22.70;99.90;;;;;;4967361;28;20031;-59
2022/09/08 14:17:58;;;;;;;9.68;1.92;;;22.90;99.90;;;;;;4968592;28;20113;-59
2022/09/08 14:20:48;;;;;;;12.13;1.58;;;22.30;99.90;;;;;;4963893;28;20027;-59
2022/09/08 14:23:52;;;;;;;14.77;2.25;;;21.70;99.90;;;;;;4974029;28;20123;-59